createdAt,value
2022-09-07T00:01:56.255Z,98224.06
2022-09-07T00:04:22.855Z,98224.50
2022-09-07T00:06:49.460Z,98225.41
2022-09-07T00:09:15.967Z,98230.03
2022-09-07T00:11:42.477Z,98231.91
2022-09-07T00:14:09.223Z,98231.91
2022-09-07T00:16:35.800Z,98226.59
2022-09-07T00:19:04.498Z,98239.88
2022-09-07T00:21:31.449Z,98234.66
2022-09-07T00:23:58.438Z,98230.22
2022-09-07T00:26:27.737Z,98235.56
2022-09-07T00:28:58.354Z,98240.03
2022-09-07T00:31:25.649Z,98243.63
2022-09-07T00:33:53.845Z,98238.31
2022-09-07T00:36:21.828Z,98236.47
2022-09-07T00:38:48.824Z,98224.72
2022-09-07T00:41:16.314Z,98229.84
2022-09-07T00:43:46.086Z,98227.47
2022-09-07T00:46:18.485Z,98226.53
2022-09-07T00:49:16.732Z,98226.44
2022-09-07T00:51:57.902Z,98236.19
2022-09-07T00:54:41.710Z,98229.19
2022-09-07T00:57:09.282Z,98233.63
2022-09-07T00:59:41.828Z,98232.00
2022-09-07T01:02:08.756Z,98233.94
2022-09-07T01:04:36.845Z,98232.56
2022-09-07T01:07:05.884Z,98242.50
2022-09-07T01:09:33.228Z,98246.00
2022-09-07T01:12:01.894Z,98255.84
2022-09-07T01:14:32.942Z,98254.13
2022-09-07T01:17:36.933Z,98252.41
2022-09-07T01:20:12.353Z,98263.00
2022-09-07T01:23:04.487Z,98256.69
2022-09-07T01:25:50.141Z,98240.06
2022-09-07T01:28:28.695Z,98240.25
2022-09-07T01:30:58.912Z,98242.81
2022-09-07T01:33:52.229Z,98247.25
2022-09-07T01:36:27.798Z,98261.47
2022-09-07T01:38:57.416Z,98255.22
2022-09-07T01:41:31.118Z,98253.41
2022-09-07T01:44:28.261Z,98251.72
2022-09-07T01:47:14.083Z,98258.81
2022-09-07T01:49:53.202Z,98244.69
2022-09-07T01:52:51.892Z,98245.38
2022-09-07T01:55:31.866Z,98250.53
2022-09-07T01:58:10.928Z,98236.47
2022-09-07T02:00:40.586Z,98241.78
2022-09-07T02:03:14.555Z,98234.75
2022-09-07T02:06:02.164Z,98233.81
2022-09-07T02:08:45.867Z,98233.91
2022-09-07T02:11:28.034Z,98227.66
2022-09-07T02:13:59.914Z,98223.28
2022-09-07T02:16:28.733Z,98232.00
2022-09-07T02:19:00.397Z,98229.72
2022-09-07T02:21:50.166Z,98227.91
2022-09-07T02:24:23.497Z,98224.75
2022-09-07T02:26:53.171Z,98226.31
2022-09-07T02:29:19.857Z,98228.38
2022-09-07T02:31:47.536Z,98222.19
2022-09-07T02:34:14.224Z,98212.38
2022-09-07T02:36:45.912Z,98217.44
2022-09-07T02:39:13.017Z,98211.03
2022-09-07T02:41:42.882Z,98212.75
2022-09-07T02:44:16.066Z,98213.69
2022-09-07T02:47:20.061Z,98216.50
2022-09-07T02:50:07.882Z,98205.88
2022-09-07T02:52:50.936Z,98216.34
2022-09-07T02:55:36.504Z,98200.56
2022-09-07T02:58:46.074Z,98204.16
2022-09-07T03:01:24.053Z,98207.06
2022-09-07T03:04:37.193Z,98203.56
2022-09-07T03:07:14.365Z,98202.75
2022-09-07T03:09:54.957Z,98209.00
2022-09-07T03:12:21.863Z,98209.94
2022-09-07T03:14:48.693Z,98206.22
2022-09-07T03:17:15.351Z,98197.31
2022-09-07T03:19:41.878Z,98201.06
2022-09-07T03:22:08.674Z,98204.66
2022-09-07T03:24:36.883Z,98202.63
2022-09-07T03:27:03.529Z,98189.84
2022-09-07T03:29:30.380Z,98194.22
2022-09-07T03:31:56.910Z,98197.84
2022-09-07T03:34:23.462Z,98200.75
2022-09-07T03:36:49.941Z,98199.03
2022-09-07T03:39:16.486Z,98195.84
2022-09-07T03:41:43.041Z,98192.34
2022-09-07T03:44:10.042Z,98188.91
2022-09-07T03:46:36.628Z,98192.34
2022-09-07T03:49:03.356Z,98180.78
2022-09-07T03:51:29.933Z,98189.53
2022-09-07T03:53:57.521Z,98177.19
2022-09-07T03:56:25.863Z,98179.94
2022-09-07T03:58:54.276Z,98180.09
2022-09-07T04:01:23.410Z,98174.72
2022-09-07T04:03:50.377Z,98171.13
2022-09-07T04:06:18.022Z,98177.38
2022-09-07T04:08:44.764Z,98173.94
2022-09-07T04:11:15.261Z,98176.66
2022-09-07T04:13:42.638Z,98179.25
2022-09-07T04:16:14.413Z,98182.03
2022-09-07T04:18:41.471Z,98174.09
2022-09-07T04:21:08.346Z,98175.78
2022-09-07T04:23:36.876Z,98174.09
2022-09-07T04:26:03.360Z,98172.19
2022-09-07T04:28:30.083Z,98167.53
2022-09-07T04:31:00.896Z,98169.41
2022-09-07T04:33:27.749Z,98168.66
2022-09-07T04:35:54.350Z,98167.75
2022-09-07T04:38:20.921Z,98158.81
2022-09-07T04:40:47.471Z,98159.56
2022-09-07T04:43:14.028Z,98163.00
2022-09-07T04:45:40.646Z,98165.06
2022-09-07T04:48:07.499Z,98169.56
2022-09-07T04:50:34.329Z,98170.50
2022-09-07T04:53:00.818Z,98168.78
2022-09-07T04:55:27.363Z,98168.09
2022-09-07T04:57:53.938Z,98155.78
2022-09-07T05:00:20.625Z,98163.34
2022-09-07T05:02:47.226Z,98169.56
2022-09-07T05:05:13.973Z,98166.91
2022-09-07T05:07:40.584Z,98184.56
2022-09-07T05:10:07.528Z,98182.81
2022-09-07T05:12:34.040Z,98204.19
2022-09-07T05:15:00.905Z,98234.13
2022-09-07T05:17:28.250Z,98224.72
2022-09-07T05:19:55.239Z,98200.94
2022-09-07T05:22:22.443Z,98192.97
2022-09-07T05:24:49.199Z,98203.97
2022-09-07T05:27:15.779Z,98202.00
2022-09-07T05:32:29.360Z,98224.78
2022-09-07T05:34:56.207Z,98227.19
2022-09-07T05:37:22.754Z,98224.06
2022-09-07T05:39:49.365Z,98227.41
2022-09-07T05:42:16.214Z,98247.53
2022-09-07T05:47:09.477Z,98237.25
2022-09-07T05:49:36.000Z,98232.00
2022-09-07T05:52:02.807Z,98215.22
2022-09-07T05:54:29.342Z,98228.13
2022-09-07T05:56:55.908Z,98238.66
2022-09-07T05:59:22.493Z,98215.53
2022-09-07T06:01:49.166Z,98226.16
2022-09-07T06:04:15.735Z,98235.94
2022-09-07T06:06:43.412Z,98226.06
2022-09-07T06:09:14.542Z,98230.63
2022-09-07T06:11:41.104Z,98219.47
2022-09-07T06:14:07.646Z,98228.72
2022-09-07T06:16:35.275Z,98215.88
2022-09-07T06:19:06.354Z,98222.97
2022-09-07T06:21:36.859Z,98214.66
2022-09-07T06:24:04.925Z,98214.84
2022-09-07T06:26:31.969Z,98225.66
2022-09-07T06:28:58.740Z,98229.03
2022-09-07T06:31:25.744Z,98214.09
2022-09-07T06:33:54.703Z,98211.44
2022-09-07T06:36:23.652Z,98200.78
2022-09-07T06:38:51.254Z,98206.59
2022-09-07T06:44:07.466Z,98201.09
2022-09-07T06:49:20.644Z,98209.00
2022-09-07T06:51:47.177Z,98195.69
2022-09-07T06:57:00.313Z,98192.91
2022-09-07T06:59:26.842Z,98184.91
2022-09-07T07:01:53.455Z,98181.09
2022-09-07T07:04:20.229Z,98188.31
2022-09-07T07:06:46.804Z,98189.75
2022-09-07T07:09:14.207Z,98172.53
2022-09-07T07:11:40.967Z,98176.53
2022-09-07T07:14:07.523Z,98170.50
2022-09-07T07:16:36.212Z,98172.22
2022-09-07T07:19:02.819Z,98169.38
2022-09-07T07:21:42.866Z,98181.25
2022-09-07T07:24:15.940Z,98169.94
2022-09-07T07:26:48.534Z,98165.63
2022-09-07T07:29:18.553Z,98178.88
2022-09-07T07:31:47.066Z,98180.97
2022-09-07T07:34:13.879Z,98179.09
2022-09-07T07:36:41.587Z,98183.94
2022-09-07T07:39:08.493Z,98185.47
2022-09-07T07:41:56.485Z,98200.97
2022-09-07T07:44:25.430Z,98203.31
2022-09-07T07:46:52.088Z,98199.50
2022-09-07T07:49:19.140Z,98195.84
2022-09-07T07:54:36.877Z,98190.94
2022-09-07T07:57:05.284Z,98199.31
2022-09-07T07:59:31.920Z,98192.09
2022-09-07T08:02:04.408Z,98201.31
2022-09-07T08:04:32.836Z,98198.44
2022-09-07T08:06:59.400Z,98189.72
2022-09-07T08:09:26.146Z,98192.16
2022-09-07T08:11:52.824Z,98197.84
2022-09-07T08:14:19.348Z,98199.00
2022-09-07T08:16:46.213Z,98198.44
2022-09-07T08:19:12.764Z,98200.88
2022-09-07T08:21:39.233Z,98200.72
2022-09-07T08:24:05.841Z,98201.91
2022-09-07T08:26:32.752Z,98204.19
2022-09-07T08:28:59.242Z,98202.06
2022-09-07T08:31:25.886Z,98197.31
2022-09-07T08:33:52.438Z,98201.22
2022-09-07T08:36:21.003Z,98198.03
2022-09-07T08:38:48.620Z,98196.72
2022-09-07T08:41:34.777Z,98203.63
2022-09-07T08:44:28.003Z,98194.03
2022-09-07T08:47:13.172Z,98197.69
2022-09-07T08:49:51.751Z,98194.13
2022-09-07T08:52:27.606Z,98200.03
2022-09-07T08:55:05.128Z,98194.41
2022-09-07T08:57:35.511Z,98195.41
2022-09-07T09:00:14.407Z,98192.06
2022-09-07T09:02:44.387Z,98193.44
2022-09-07T09:05:40.525Z,98189.66
2022-09-07T09:08:12.261Z,98194.75
2022-09-07T09:10:41.759Z,98192.41
2022-09-07T09:13:22.472Z,98189.94
2022-09-07T09:16:13.925Z,98188.38
2022-09-07T09:19:19.707Z,98192.84
2022-09-07T09:21:46.484Z,98189.19
2022-09-07T09:24:19.382Z,98193.94
2022-09-07T09:26:53.231Z,98184.97
2022-09-07T09:29:22.763Z,98190.72
2022-09-07T09:31:49.478Z,98177.84
2022-09-07T09:34:19.132Z,98189.19
2022-09-07T09:36:56.635Z,98189.38
2022-09-07T09:39:33.189Z,98189.69
2022-09-07T09:42:11.904Z,98183.66
2022-09-07T09:44:39.197Z,98183.44
2022-09-07T09:49:54.422Z,98177.31
2022-09-07T09:52:34.779Z,98174.72
2022-09-07T10:03:59.384Z,98176.00
2022-09-07T10:06:28.277Z,98173.78
2022-09-07T10:09:01.912Z,98168.47
2022-09-07T10:14:42.610Z,98181.63
2022-09-07T10:17:19.327Z,98169.13
2022-09-07T10:19:45.992Z,98174.28
2022-09-07T10:22:24.787Z,98168.34
2022-09-07T10:24:52.290Z,98176.31
2022-09-07T10:27:32.198Z,98171.88
2022-09-07T10:29:59.402Z,98173.75
2022-09-07T10:32:47.923Z,98172.91
2022-09-07T10:35:17.246Z,98165.81
2022-09-07T10:38:03.962Z,98172.06
2022-09-07T10:40:40.657Z,98175.47
2022-09-07T10:43:22.086Z,98158.31
2022-09-07T10:49:38.499Z,98150.84
2022-09-07T10:52:25.879Z,98156.63
2022-09-07T10:55:23.852Z,98162.38
2022-09-07T10:58:08.045Z,98153.75
2022-09-07T11:00:47.737Z,98154.56
2022-09-07T11:03:26.281Z,98148.50
2022-09-07T11:06:00.961Z,98131.69
2022-09-07T11:09:17.684Z,98139.16
2022-09-07T11:12:05.715Z,98130.78
2022-09-07T11:14:52.888Z,98117.94
2022-09-07T11:17:24.001Z,98127.88
2022-09-07T11:20:12.469Z,98123.50
2022-09-07T11:22:44.729Z,98116.47
2022-09-07T11:25:42.169Z,98117.75
2022-09-07T11:28:17.577Z,98115.38
2022-09-07T11:30:49.985Z,98118.81
2022-09-07T11:33:25.616Z,98109.00
2022-09-07T11:36:11.967Z,98107.22
2022-09-07T11:38:48.499Z,98106.41
2022-09-07T11:41:31.881Z,98103.56
2022-09-07T11:44:24.818Z,98104.06
2022-09-07T11:46:54.728Z,98104.81
2022-09-07T11:49:28.757Z,98105.22
2022-09-07T11:52:09.598Z,98102.59
2022-09-07T11:54:48.889Z,98102.09
2022-09-07T11:57:15.382Z,98100.25
2022-09-07T12:00:01.966Z,98101.66
2022-09-07T12:03:00.267Z,98095.28
2022-09-07T12:05:55.522Z,98076.69
2022-09-07T12:08:48.846Z,98082.13
2022-09-07T12:11:39.721Z,98076.28
2022-09-07T12:14:40.813Z,98070.56
2022-09-07T12:17:24.861Z,98072.94
2022-09-07T12:20:09.372Z,98070.03
2022-09-07T12:22:36.120Z,98079.41
2022-09-07T12:25:10.329Z,98074.63
2022-09-07T12:27:38.321Z,98066.31
2022-09-07T12:30:04.980Z,98070.88
2022-09-07T12:33:01.800Z,98064.28
2022-09-07T12:35:28.390Z,98062.84
2022-09-07T12:37:59.264Z,98062.06
2022-09-07T12:40:28.811Z,98055.41
2022-09-07T12:43:16.155Z,98058.75
2022-09-07T12:45:42.605Z,98065.47
2022-09-07T12:48:15.381Z,98056.13
2022-09-07T12:51:10.283Z,98046.59
2022-09-07T12:54:01.695Z,98048.00
2022-09-07T12:56:41.960Z,98049.47
2022-09-07T12:59:33.490Z,98050.06
2022-09-07T13:02:03.127Z,98053.16
2022-09-07T13:04:46.488Z,98046.59
2022-09-07T13:07:38.053Z,98044.97
2022-09-07T13:10:23.512Z,98049.34
2022-09-07T13:12:53.171Z,98042.38
2022-09-07T13:15:41.483Z,98048.28
2022-09-07T13:18:27.087Z,98039.19
2022-09-07T13:21:08.918Z,98047.75
2022-09-07T13:23:41.076Z,98043.03
2022-09-07T13:26:10.990Z,98045.16
2022-09-07T13:28:40.429Z,98046.13
2022-09-07T13:31:28.876Z,98042.56
2022-09-07T13:33:57.236Z,98031.25
2022-09-07T13:36:32.256Z,98028.41
2022-09-07T13:38:59.302Z,98028.63
2022-09-07T13:41:32.082Z,98033.63
2022-09-07T13:44:01.392Z,98030.75
2022-09-07T13:46:35.217Z,98037.38
2022-09-07T13:49:41.150Z,98031.13
2022-09-07T13:52:16.382Z,98029.00
2022-09-07T13:54:45.555Z,98031.22
2022-09-07T13:57:14.701Z,98038.53
2022-09-07T13:59:42.779Z,98025.56
2022-09-07T14:02:32.643Z,98026.97
2022-09-07T14:05:03.001Z,98026.16
2022-09-07T14:07:30.898Z,98018.03
2022-09-07T14:10:06.325Z,98018.19
2022-09-07T14:12:44.297Z,98020.81
2022-09-07T14:15:21.987Z,98027.34
2022-09-07T14:17:52.027Z,98022.84
2022-09-07T14:20:19.192Z,98018.88
2022-09-07T14:22:49.416Z,98022.75
2022-09-07T14:25:19.742Z,98017.25
2022-09-07T14:27:47.914Z,98011.28
2022-09-07T14:30:23.936Z,98002.16
2022-09-07T14:32:53.479Z,97999.28
2022-09-07T14:35:23.026Z,98002.03
2022-09-07T14:37:50.794Z,97989.97
2022-09-07T14:40:25.953Z,97997.13
2022-09-07T14:42:55.934Z,97989.94
2022-09-07T14:45:22.377Z,97997.56
2022-09-07T14:47:52.275Z,97979.16
2022-09-07T14:50:21.647Z,97981.19
2022-09-07T14:53:34.319Z,97984.88
2022-09-07T14:55:39.769Z,97992.41
2022-09-07T14:58:15.604Z,97990.03
2022-09-07T15:00:43.614Z,97990.88
2022-09-07T15:03:32.131Z,97989.88
2022-09-07T15:06:01.353Z,97981.72
2022-09-07T15:08:41.513Z,97979.34
2022-09-07T15:11:35.676Z,97988.91
2022-09-07T15:14:08.652Z,97979.44
2022-09-07T15:16:39.420Z,97979.44
2022-09-07T15:19:15.227Z,97980.41
2022-09-07T15:21:43.494Z,97975.19
2022-09-07T15:24:10.768Z,97969.25
2022-09-07T15:29:29.093Z,97972.88
2022-09-07T15:32:03.328Z,97969.00
2022-09-07T15:34:31.614Z,97974.28
2022-09-07T15:37:00.882Z,97970.22
2022-09-07T15:39:30.351Z,97968.56
2022-09-07T15:41:58.165Z,97965.09
2022-09-07T15:44:28.407Z,97964.97
2022-09-07T15:49:49.282Z,97967.56
2022-09-07T15:52:17.142Z,97967.56
2022-09-07T15:54:44.129Z,97961.44
2022-09-07T15:59:57.610Z,97949.22
2022-09-07T16:05:10.862Z,97961.63
2022-09-07T16:10:24.576Z,97959.34
2022-09-07T16:15:45.890Z,97964.03
2022-09-07T16:18:18.052Z,97963.53
2022-09-07T16:20:45.511Z,97960.84
2022-09-07T16:23:15.235Z,97963.75
2022-09-07T16:25:54.309Z,97958.19
2022-09-07T16:28:20.945Z,97953.50
2022-09-07T16:30:48.183Z,97954.03
2022-09-07T16:33:14.945Z,97953.88
2022-09-07T16:35:41.494Z,97936.59
2022-09-07T16:40:54.899Z,97932.94
2022-09-07T16:43:21.676Z,97926.03
2022-09-07T16:46:03.928Z,97934.69
2022-09-07T16:48:32.415Z,97938.00
2022-09-07T16:51:02.309Z,97945.09
2022-09-07T16:53:31.578Z,97938.53
2022-09-07T16:56:04.719Z,97949.25
2022-09-07T16:58:37.775Z,97938.88
2022-09-07T17:01:06.670Z,97943.31
2022-09-07T17:03:33.942Z,97943.19
2022-09-07T17:06:01.158Z,97947.25
2022-09-07T17:08:28.232Z,97948.00
2022-09-07T17:11:09.888Z,97952.38
2022-09-07T17:13:38.149Z,97958.53
2022-09-07T17:16:08.041Z,97954.66
2022-09-07T17:21:21.978Z,97956.88
2022-09-07T17:23:54.880Z,97961.56
2022-09-07T17:26:26.046Z,97960.97
2022-09-07T17:28:54.989Z,97970.38
2022-09-07T17:34:13.416Z,97972.44
2022-09-07T17:36:43.274Z,97963.91
2022-09-07T17:39:18.861Z,97962.47
2022-09-07T17:41:47.836Z,97964.19
2022-09-07T17:44:14.609Z,97964.28
2022-09-07T17:46:41.175Z,97954.28
2022-09-07T17:49:12.481Z,97961.41
2022-09-07T17:51:39.528Z,97965.38
2022-09-07T17:54:11.702Z,97969.06
2022-09-07T17:56:41.730Z,97976.59
2022-09-07T18:01:56.341Z,97975.59
2022-09-07T18:04:23.444Z,97978.16
2022-09-07T18:06:50.456Z,97987.06
2022-09-07T18:09:19.988Z,97987.06
2022-09-07T18:11:48.658Z,97980.97
2022-09-07T18:14:21.167Z,97994.25
2022-09-07T18:16:50.994Z,97992.50
2022-09-07T18:19:21.400Z,97995.88
2022-09-07T18:21:48.855Z,97997.25
2022-09-07T18:24:21.165Z,97995.66
2022-09-07T18:26:51.300Z,98006.50
2022-09-07T18:29:36.851Z,98004.78
2022-09-07T18:32:09.882Z,97993.16
2022-09-07T18:34:40.768Z,97995.91
2022-09-07T18:37:08.380Z,97999.13
2022-09-07T18:39:35.906Z,97998.94
2022-09-07T18:42:10.468Z,98003.13
2022-09-07T18:47:37.720Z,98018.50
2022-09-07T18:50:05.250Z,98018.22
2022-09-07T18:52:52.079Z,98024.72
2022-09-07T18:55:39.494Z,98025.28
2022-09-07T18:58:12.670Z,98033.34
2022-09-07T19:01:07.140Z,98029.78
2022-09-07T19:04:01.622Z,98034.81
2022-09-07T19:06:28.235Z,98027.75
2022-09-07T19:08:56.307Z,98025.81
2022-09-07T19:12:28.027Z,98021.16
2022-09-07T19:14:54.733Z,98032.13
2022-09-07T19:17:21.277Z,98023.38
2022-09-07T19:19:48.738Z,98031.41
2022-09-07T19:22:15.373Z,98034.09
2022-09-07T19:24:41.906Z,98030.69
2022-09-07T19:27:08.437Z,98029.25
2022-09-07T19:29:34.982Z,98028.53
2022-09-07T19:32:04.651Z,98031.47
2022-09-07T19:34:35.865Z,98028.78
2022-09-07T19:37:04.065Z,98019.81
2022-09-07T19:39:30.709Z,98022.41
2022-09-07T19:41:57.366Z,98027.66
2022-09-07T19:44:24.160Z,98022.56
2022-09-07T19:46:50.838Z,98018.44
2022-09-07T19:49:17.855Z,98014.41
2022-09-07T19:51:44.654Z,98020.84
2022-09-07T19:54:12.075Z,98015.97
2022-09-07T19:56:40.725Z,98013.22
2022-09-07T19:59:07.630Z,98004.56
2022-09-07T20:01:35.196Z,98014.44
2022-09-07T20:04:08.008Z,98006.28
2022-09-07T20:06:34.940Z,98005.66
2022-09-07T20:09:01.948Z,98006.41
2022-09-07T20:11:29.215Z,98009.38
2022-09-07T20:13:57.148Z,98010.34
2022-09-07T20:16:24.819Z,98004.50
2022-09-07T20:18:51.478Z,98002.06
2022-09-07T20:21:23.345Z,98009.38
2022-09-07T20:23:50.725Z,97999.75
2022-09-07T20:26:19.887Z,97996.97
2022-09-07T20:28:46.888Z,97998.16
2022-09-07T20:31:16.023Z,97997.06
2022-09-07T20:33:44.503Z,97991.38
2022-09-07T20:36:13.743Z,97988.56
2022-09-07T20:38:56.519Z,97991.19
2022-09-07T20:41:28.913Z,97996.00
2022-09-07T20:43:58.375Z,97996.59
2022-09-07T20:46:25.386Z,97991.91
2022-09-07T20:48:52.234Z,97982.91
2022-09-07T20:51:21.310Z,97980.19
2022-09-07T20:53:49.469Z,97981.66
2022-09-07T20:56:23.775Z,97975.31
2022-09-07T20:58:58.042Z,97977.88
2022-09-07T21:01:24.790Z,97978.84
2022-09-07T21:03:53.544Z,97977.25
2022-09-07T21:06:21.550Z,97970.69
2022-09-07T21:08:49.102Z,97978.66
2022-09-07T21:11:17.321Z,97973.31
2022-09-07T21:13:44.570Z,97962.47
2022-09-07T21:16:13.891Z,97972.06
2022-09-07T21:18:41.367Z,97967.94
2022-09-07T21:21:23.169Z,97971.59
2022-09-07T21:23:55.577Z,97981.25
2022-09-07T21:26:22.128Z,97976.38
2022-09-07T21:28:57.538Z,97963.03
2022-09-07T21:31:24.825Z,97969.97
2022-09-07T21:33:55.902Z,97962.72
2022-09-07T21:36:22.461Z,97963.78
2022-09-07T21:38:48.996Z,97959.97
2022-09-07T21:41:17.866Z,97958.88
2022-09-07T21:43:44.333Z,97954.19
2022-09-07T21:46:17.247Z,97955.38
2022-09-07T21:48:47.081Z,97958.03
2022-09-07T21:51:14.837Z,97947.47
2022-09-07T21:53:42.016Z,97954.44
2022-09-07T21:56:11.935Z,97946.91
2022-09-07T21:58:40.017Z,97944.59
2022-09-07T22:01:17.009Z,97938.59
2022-09-07T22:03:45.710Z,97941.50
2022-09-07T22:06:12.651Z,97933.84
2022-09-07T22:08:41.437Z,97932.25
2022-09-07T22:11:11.076Z,97933.66
2022-09-07T22:13:38.425Z,97937.03
2022-09-07T22:16:05.484Z,97929.81
2022-09-07T22:18:32.481Z,97928.34
2022-09-07T22:21:09.846Z,97921.53
2022-09-07T22:23:39.008Z,97921.97
2022-09-07T22:26:06.298Z,97921.31
2022-09-07T22:28:32.936Z,97923.94
2022-09-07T22:31:17.626Z,97925.13
2022-09-07T22:33:45.223Z,97926.94
2022-09-07T22:36:20.894Z,97929.06
2022-09-07T22:38:49.684Z,97921.19
2022-09-07T22:41:18.458Z,97921.72
2022-09-07T22:43:45.849Z,97919.50
2022-09-07T22:46:13.838Z,97918.88
2022-09-07T22:48:41.446Z,97920.03
2022-09-07T22:51:09.287Z,97914.94
2022-09-07T22:53:39.118Z,97914.81
2022-09-07T22:56:11.309Z,97921.88
2022-09-07T22:58:38.630Z,97923.91
2022-09-07T23:01:06.406Z,97919.13
2022-09-07T23:03:34.987Z,97914.00
2022-09-07T23:06:01.978Z,97910.59
2022-09-07T23:08:29.173Z,97910.91
2022-09-07T23:10:56.125Z,97911.69
2022-09-07T23:13:22.622Z,97908.47
2022-09-07T23:15:49.781Z,97905.81
2022-09-07T23:18:18.266Z,97905.38
2022-09-07T23:20:45.258Z,97897.59
2022-09-07T23:23:13.400Z,97898.59
2022-09-07T23:25:41.561Z,97890.53
2022-09-07T23:28:12.327Z,97887.88
2022-09-07T23:30:42.332Z,97884.53
2022-09-07T23:33:08.867Z,97883.06
2022-09-07T23:35:35.355Z,97877.50
2022-09-07T23:38:02.060Z,97876.13
2022-09-07T23:40:30.485Z,97880.50
2022-09-07T23:42:57.305Z,97886.03
2022-09-07T23:45:24.427Z,97879.44
2022-09-07T23:47:50.937Z,97880.47
2022-09-07T23:50:17.935Z,97877.16
2022-09-07T23:52:44.442Z,97883.47
2022-09-07T23:55:11.614Z,97884.75
2022-09-07T23:57:38.920Z,97879.63
